sensor_id;sensor_type;location;lat;lon;timestamp;temperature;humidity
12504;DHT22;6316;48.118;-1.690;2023-02-01T00:01:22;10.30;99.90
12504;DHT22;6316;48.118;-1.690;2023-02-01T00:03:48;10.30;99.90
12504;DHT22;6316;48.118;-1.690;2023-02-01T00:06:14;10.30;99.90
12504;DHT22;6316;48.118;-1.690;2023-02-01T00:08:39;10.30;99.90
12504;DHT22;6316;48.118;-1.690;2023-02-01T00:11:06;10.30;99.90
12504;DHT22;6316;48.118;-1.690;2023-02-01T00:13:32;10.30;99.90
12504;DHT22;6316;48.118;-1.690;2023-02-01T00:16:03;10.30;99.90
12504;DHT22;6316;48.118;-1.690;2023-02-01T00:18:28;10.30;99.90
12504;DHT22;6316;48.118;-1.690;2023-02-01T00:20:54;10.30;99.90
12504;DHT22;6316;48.118;-1.690;2023-02-01T00:23:19;10.30;99.90
12504;DHT22;6316;48.118;-1.690;2023-02-01T00:25:45;10.30;99.90
12504;DHT22;6316;48.118;-1.690;2023-02-01T00:28:10;10.30;99.90
12504;DHT22;6316;48.118;-1.690;2023-02-01T00:30:38;10.30;99.90
12504;DHT22;6316;48.118;-1.690;2023-02-01T00:33:04;10.30;99.90
12504;DHT22;6316;48.118;-1.690;2023-02-01T00:35:29;10.30;99.90
12504;DHT22;6316;48.118;-1.690;2023-02-01T00:37:55;10.20;99.90
12504;DHT22;6316;48.118;-1.690;2023-02-01T00:40:23;10.20;99.90
12504;DHT22;6316;48.118;-1.690;2023-02-01T00:42:49;10.20;99.90
12504;DHT22;6316;48.118;-1.690;2023-02-01T00:45:14;10.20;99.90
12504;DHT22;6316;48.118;-1.690;2023-02-01T00:47:40;10.20;99.90
12504;DHT22;6316;48.118;-1.690;2023-02-01T00:50:06;10.20;99.90
12504;DHT22;6316;48.118;-1.690;2023-02-01T00:52:31;10.20;99.90
12504;DHT22;6316;48.118;-1.690;2023-02-01T00:54:57;10.20;99.90
12504;DHT22;6316;48.118;-1.690;2023-02-01T00:57:22;10.20;99.90
12504;DHT22;6316;48.118;-1.690;2023-02-01T00:59:48;10.20;99.90
12504;DHT22;6316;48.118;-1.690;2023-02-01T01:02:13;10.20;99.90
12504;DHT22;6316;48.118;-1.690;2023-02-01T01:04:39;10.20;99.90
12504;DHT22;6316;48.118;-1.690;2023-02-01T01:07:05;10.10;99.90
12504;DHT22;6316;48.118;-1.690;2023-02-01T01:09:30;10.10;99.90
12504;DHT22;6316;48.118;-1.690;2023-02-01T01:11:56;10.10;99.90
12504;DHT22;6316;48.118;-1.690;2023-02-01T01:14:21;10.00;99.90
12504;DHT22;6316;48.118;-1.690;2023-02-01T01:16:47;10.00;99.90
12504;DHT22;6316;48.118;-1.690;2023-02-01T01:19:13;10.00;99.90
12504;DHT22;6316;48.118;-1.690;2023-02-01T01:21:38;9.90;99.90
12504;DHT22;6316;48.118;-1.690;2023-02-01T01:24:04;9.90;99.90
12504;DHT22;6316;48.118;-1.690;2023-02-01T01:26:30;9.90;99.90
12504;DHT22;6316;48.118;-1.690;2023-02-01T01:28:56;9.90;99.90
12504;DHT22;6316;48.118;-1.690;2023-02-01T01:31:21;9.90;99.90
12504;DHT22;6316;48.118;-1.690;2023-02-01T01:33:48;9.90;99.90
12504;DHT22;6316;48.118;-1.690;2023-02-01T01:36:14;9.90;99.90
12504;DHT22;6316;48.118;-1.690;2023-02-01T01:38:40;9.90;99.90
12504;DHT22;6316;48.118;-1.690;2023-02-01T01:41:05;9.90;99.90
12504;DHT22;6316;48.118;-1.690;2023-02-01T01:46:16;9.90;99.90
12504;DHT22;6316;48.118;-1.690;2023-02-01T01:48:42;9.90;99.90
12504;DHT22;6316;48.118;-1.690;2023-02-01T01:51:08;9.90;99.90
12504;DHT22;6316;48.118;-1.690;2023-02-01T01:53:40;9.90;99.90
12504;DHT22;6316;48.118;-1.690;2023-02-01T01:56:07;9.90;99.90
12504;DHT22;6316;48.118;-1.690;2023-02-01T01:58:33;9.90;99.90
12504;DHT22;6316;48.118;-1.690;2023-02-01T02:00:59;9.90;99.90
12504;DHT22;6316;48.118;-1.690;2023-02-01T02:03:27;9.90;99.90
12504;DHT22;6316;48.118;-1.690;2023-02-01T02:05:55;9.90;99.90
12504;DHT22;6316;48.118;-1.690;2023-02-01T02:08:23;9.90;99.90
12504;DHT22;6316;48.118;-1.690;2023-02-01T02:10:50;9.90;99.90
12504;DHT22;6316;48.118;-1.690;2023-02-01T02:13:29;9.90;99.90
12504;DHT22;6316;48.118;-1.690;2023-02-01T02:38:57;9.80;99.90
12504;DHT22;6316;48.118;-1.690;2023-02-01T02:44:21;9.80;99.90
12504;DHT22;6316;48.118;-1.690;2023-02-01T02:47:32;9.80;99.90
12504;DHT22;6316;48.118;-1.690;2023-02-01T02:50:23;9.80;99.90
12504;DHT22;6316;48.118;-1.690;2023-02-01T02:53:13;9.80;99.90
12504;DHT22;6316;48.118;-1.690;2023-02-01T02:55:58;9.80;99.90
12504;DHT22;6316;48.118;-1.690;2023-02-01T02:58:44;9.80;99.90
12504;DHT22;6316;48.118;-1.690;2023-02-01T03:01:30;9.80;99.90
12504;DHT22;6316;48.118;-1.690;2023-02-01T03:04:14;9.80;99.90
12504;DHT22;6316;48.118;-1.690;2023-02-01T03:06:45;9.80;99.90
12504;DHT22;6316;48.118;-1.690;2023-02-01T03:11:48;9.90;99.90
12504;DHT22;6316;48.118;-1.690;2023-02-01T03:14:35;9.90;99.90
12504;DHT22;6316;48.118;-1.690;2023-02-01T03:17:04;9.90;99.90
12504;DHT22;6316;48.118;-1.690;2023-02-01T03:19:38;9.90;99.90
12504;DHT22;6316;48.118;-1.690;2023-02-01T03:22:08;9.90;99.90
12504;DHT22;6316;48.118;-1.690;2023-02-01T03:24:51;9.90;99.90
12504;DHT22;6316;48.118;-1.690;2023-02-01T03:29:52;9.90;99.90
12504;DHT22;6316;48.118;-1.690;2023-02-01T03:32:19;9.90;99.90
12504;DHT22;6316;48.118;-1.690;2023-02-01T03:34:45;9.90;99.90
12504;DHT22;6316;48.118;-1.690;2023-02-01T03:37:12;9.90;99.90
12504;DHT22;6316;48.118;-1.690;2023-02-01T03:42:18;9.90;99.90
12504;DHT22;6316;48.118;-1.690;2023-02-01T03:44:53;9.90;99.90
12504;DHT22;6316;48.118;-1.690;2023-02-01T03:47:23;9.90;99.90
12504;DHT22;6316;48.118;-1.690;2023-02-01T03:49:52;9.80;99.90
12504;DHT22;6316;48.118;-1.690;2023-02-01T03:52:22;9.80;99.90
12504;DHT22;6316;48.118;-1.690;2023-02-01T03:54:50;9.80;99.90
12504;DHT22;6316;48.118;-1.690;2023-02-01T03:57:16;9.80;99.90
12504;DHT22;6316;48.118;-1.690;2023-02-01T03:59:45;9.80;99.90
12504;DHT22;6316;48.118;-1.690;2023-02-01T04:02:10;9.80;99.90
12504;DHT22;6316;48.118;-1.690;2023-02-01T04:04:36;9.80;99.90
12504;DHT22;6316;48.118;-1.690;2023-02-01T04:07:02;9.80;99.90
12504;DHT22;6316;48.118;-1.690;2023-02-01T04:09:27;9.80;99.90
12504;DHT22;6316;48.118;-1.690;2023-02-01T04:11:53;9.80;99.90
12504;DHT22;6316;48.118;-1.690;2023-02-01T04:14:18;9.80;99.90
12504;DHT22;6316;48.118;-1.690;2023-02-01T04:16:44;9.80;99.90
12504;DHT22;6316;48.118;-1.690;2023-02-01T04:19:10;9.80;99.90
12504;DHT22;6316;48.118;-1.690;2023-02-01T04:21:35;9.70;99.90
12504;DHT22;6316;48.118;-1.690;2023-02-01T04:24:01;9.70;99.90
12504;DHT22;6316;48.118;-1.690;2023-02-01T04:26:26;9.70;99.90
12504;DHT22;6316;48.118;-1.690;2023-02-01T04:28:52;9.70;99.90
12504;DHT22;6316;48.118;-1.690;2023-02-01T04:31:18;9.70;99.90
12504;DHT22;6316;48.118;-1.690;2023-02-01T04:33:51;9.70;99.90
12504;DHT22;6316;48.118;-1.690;2023-02-01T04:36:16;9.70;99.90
12504;DHT22;6316;48.118;-1.690;2023-02-01T04:38:44;9.80;99.90
12504;DHT22;6316;48.118;-1.690;2023-02-01T04:41:10;9.70;99.90
12504;DHT22;6316;48.118;-1.690;2023-02-01T04:43:35;9.70;99.90
12504;DHT22;6316;48.118;-1.690;2023-02-01T04:46:01;9.70;99.90
12504;DHT22;6316;48.118;-1.690;2023-02-01T04:48:27;9.70;99.90
12504;DHT22;6316;48.118;-1.690;2023-02-01T04:50:53;9.70;99.90
12504;DHT22;6316;48.118;-1.690;2023-02-01T04:53:18;9.70;99.90
12504;DHT22;6316;48.118;-1.690;2023-02-01T04:55:44;9.70;99.90
12504;DHT22;6316;48.118;-1.690;2023-02-01T04:58:09;9.70;99.90
12504;DHT22;6316;48.118;-1.690;2023-02-01T05:00:36;9.70;99.90
12504;DHT22;6316;48.118;-1.690;2023-02-01T05:03:01;9.80;99.90
12504;DHT22;6316;48.118;-1.690;2023-02-01T05:05:27;9.80;99.90
12504;DHT22;6316;48.118;-1.690;2023-02-01T05:07:52;9.80;99.90
12504;DHT22;6316;48.118;-1.690;2023-02-01T05:10:18;9.70;99.90
12504;DHT22;6316;48.118;-1.690;2023-02-01T05:12:44;9.70;99.90
12504;DHT22;6316;48.118;-1.690;2023-02-01T05:15:28;9.70;99.90
12504;DHT22;6316;48.118;-1.690;2023-02-01T05:17:54;9.70;99.90
12504;DHT22;6316;48.118;-1.690;2023-02-01T05:20:19;9.70;99.90
12504;DHT22;6316;48.118;-1.690;2023-02-01T05:22:45;9.70;99.90
12504;DHT22;6316;48.118;-1.690;2023-02-01T05:25:10;9.70;99.90
12504;DHT22;6316;48.118;-1.690;2023-02-01T05:27:36;9.70;99.90
12504;DHT22;6316;48.118;-1.690;2023-02-01T05:30:05;9.70;99.90
12504;DHT22;6316;48.118;-1.690;2023-02-01T05:32:31;9.70;99.90
12504;DHT22;6316;48.118;-1.690;2023-02-01T05:34:57;9.70;99.90
12504;DHT22;6316;48.118;-1.690;2023-02-01T05:37:23;9.70;99.90
12504;DHT22;6316;48.118;-1.690;2023-02-01T05:39:48;9.70;99.90
12504;DHT22;6316;48.118;-1.690;2023-02-01T05:42:14;9.70;99.90
12504;DHT22;6316;48.118;-1.690;2023-02-01T05:44:39;9.70;99.90
12504;DHT22;6316;48.118;-1.690;2023-02-01T05:47:05;9.70;99.90
12504;DHT22;6316;48.118;-1.690;2023-02-01T05:49:31;9.70;99.90
12504;DHT22;6316;48.118;-1.690;2023-02-01T05:51:56;9.70;99.90
12504;DHT22;6316;48.118;-1.690;2023-02-01T05:54:22;9.70;99.90
12504;DHT22;6316;48.118;-1.690;2023-02-01T05:56:47;9.70;99.90
12504;DHT22;6316;48.118;-1.690;2023-02-01T05:59:13;9.70;99.90
12504;DHT22;6316;48.118;-1.690;2023-02-01T06:01:38;9.70;99.90
12504;DHT22;6316;48.118;-1.690;2023-02-01T06:04:04;9.70;99.90
12504;DHT22;6316;48.118;-1.690;2023-02-01T06:06:29;9.80;99.90
12504;DHT22;6316;48.118;-1.690;2023-02-01T06:08:55;9.80;99.90
12504;DHT22;6316;48.118;-1.690;2023-02-01T06:11:20;9.80;99.90
12504;DHT22;6316;48.118;-1.690;2023-02-01T06:13:46;9.80;99.90
12504;DHT22;6316;48.118;-1.690;2023-02-01T06:16:11;9.80;99.90
12504;DHT22;6316;48.118;-1.690;2023-02-01T06:18:37;9.80;99.90
12504;DHT22;6316;48.118;-1.690;2023-02-01T06:21:03;9.80;99.90
12504;DHT22;6316;48.118;-1.690;2023-02-01T06:23:29;9.80;99.90
12504;DHT22;6316;48.118;-1.690;2023-02-01T06:25:59;9.80;99.90
12504;DHT22;6316;48.118;-1.690;2023-02-01T06:28:25;9.80;99.90
12504;DHT22;6316;48.118;-1.690;2023-02-01T06:30:50;9.80;99.90
12504;DHT22;6316;48.118;-1.690;2023-02-01T06:33:16;9.80;99.90
12504;DHT22;6316;48.118;-1.690;2023-02-01T06:35:42;9.80;99.90
12504;DHT22;6316;48.118;-1.690;2023-02-01T06:38:11;9.80;99.90
12504;DHT22;6316;48.118;-1.690;2023-02-01T06:40:37;9.80;99.90
12504;DHT22;6316;48.118;-1.690;2023-02-01T06:43:03;9.80;99.90
12504;DHT22;6316;48.118;-1.690;2023-02-01T06:45:28;9.80;99.90
12504;DHT22;6316;48.118;-1.690;2023-02-01T06:47:54;9.80;99.90
12504;DHT22;6316;48.118;-1.690;2023-02-01T06:50:19;9.80;99.90
12504;DHT22;6316;48.118;-1.690;2023-02-01T06:52:45;9.80;99.90
12504;DHT22;6316;48.118;-1.690;2023-02-01T06:55:11;9.80;99.90
12504;DHT22;6316;48.118;-1.690;2023-02-01T06:57:36;9.70;99.90
12504;DHT22;6316;48.118;-1.690;2023-02-01T07:00:03;9.70;99.90
12504;DHT22;6316;48.118;-1.690;2023-02-01T07:02:28;9.70;99.90
12504;DHT22;6316;48.118;-1.690;2023-02-01T07:04:54;9.70;99.90
12504;DHT22;6316;48.118;-1.690;2023-02-01T07:07:19;9.70;99.90
12504;DHT22;6316;48.118;-1.690;2023-02-01T07:09:50;9.70;99.90
12504;DHT22;6316;48.118;-1.690;2023-02-01T07:12:16;9.70;99.90
12504;DHT22;6316;48.118;-1.690;2023-02-01T07:14:41;9.70;99.90
12504;DHT22;6316;48.118;-1.690;2023-02-01T07:17:07;9.70;99.90
12504;DHT22;6316;48.118;-1.690;2023-02-01T07:19:32;9.70;99.90
12504;DHT22;6316;48.118;-1.690;2023-02-01T07:21:58;9.60;99.90
12504;DHT22;6316;48.118;-1.690;2023-02-01T07:24:23;9.60;99.90
12504;DHT22;6316;48.118;-1.690;2023-02-01T07:26:49;9.60;99.90
12504;DHT22;6316;48.118;-1.690;2023-02-01T07:29:17;9.50;99.90
12504;DHT22;6316;48.118;-1.690;2023-02-01T07:31:42;9.50;99.90
12504;DHT22;6316;48.118;-1.690;2023-02-01T07:34:08;9.50;99.90
12504;DHT22;6316;48.118;-1.690;2023-02-01T07:36:33;9.50;99.90
12504;DHT22;6316;48.118;-1.690;2023-02-01T07:39:02;9.50;99.90
12504;DHT22;6316;48.118;-1.690;2023-02-01T07:41:27;9.50;99.90
12504;DHT22;6316;48.118;-1.690;2023-02-01T07:43:53;9.50;99.90
12504;DHT22;6316;48.118;-1.690;2023-02-01T07:46:18;9.50;99.90
12504;DHT22;6316;48.118;-1.690;2023-02-01T07:48:44;9.50;99.90
12504;DHT22;6316;48.118;-1.690;2023-02-01T07:51:10;9.50;99.90
12504;DHT22;6316;48.118;-1.690;2023-02-01T07:53:36;9.50;99.90
12504;DHT22;6316;48.118;-1.690;2023-02-01T07:56:03;9.50;99.90
12504;DHT22;6316;48.118;-1.690;2023-02-01T07:58:28;9.60;99.90
12504;DHT22;6316;48.118;-1.690;2023-02-01T08:00:54;9.60;99.90
12504;DHT22;6316;48.118;-1.690;2023-02-01T08:03:38;9.60;99.90
12504;DHT22;6316;48.118;-1.690;2023-02-01T08:06:04;9.60;99.90
12504;DHT22;6316;48.118;-1.690;2023-02-01T08:08:30;9.60;99.90
12504;DHT22;6316;48.118;-1.690;2023-02-01T08:10:59;9.60;99.90
12504;DHT22;6316;48.118;-1.690;2023-02-01T08:13:25;9.60;99.90
12504;DHT22;6316;48.118;-1.690;2023-02-01T08:15:50;9.60;99.90
12504;DHT22;6316;48.118;-1.690;2023-02-01T08:18:16;9.60;99.90
12504;DHT22;6316;48.118;-1.690;2023-02-01T08:20:46;9.70;99.90
12504;DHT22;6316;48.118;-1.690;2023-02-01T08:23:12;9.70;99.90
12504;DHT22;6316;48.118;-1.690;2023-02-01T08:25:38;9.70;99.90
12504;DHT22;6316;48.118;-1.690;2023-02-01T08:28:05;9.70;99.90
12504;DHT22;6316;48.118;-1.690;2023-02-01T08:30:32;9.70;99.90
12504;DHT22;6316;48.118;-1.690;2023-02-01T08:32:57;9.80;99.90
12504;DHT22;6316;48.118;-1.690;2023-02-01T08:35:23;9.80;99.90
12504;DHT22;6316;48.118;-1.690;2023-02-01T08:37:49;9.80;99.90
12504;DHT22;6316;48.118;-1.690;2023-02-01T08:40:15;9.80;99.90
12504;DHT22;6316;48.118;-1.690;2023-02-01T08:42:41;9.80;99.90
12504;DHT22;6316;48.118;-1.690;2023-02-01T08:45:25;9.80;99.90
12504;DHT22;6316;48.118;-1.690;2023-02-01T08:47:52;9.90;99.90
12504;DHT22;6316;48.118;-1.690;2023-02-01T08:50:18;9.90;99.90
12504;DHT22;6316;48.118;-1.690;2023-02-01T08:52:44;9.90;99.90
12504;DHT22;6316;48.118;-1.690;2023-02-01T08:55:10;9.90;99.90
12504;DHT22;6316;48.118;-1.690;2023-02-01T08:57:36;9.90;99.90
12504;DHT22;6316;48.118;-1.690;2023-02-01T09:00:03;9.90;99.90
12504;DHT22;6316;48.118;-1.690;2023-02-01T09:02:29;10.00;99.90
12504;DHT22;6316;48.118;-1.690;2023-02-01T09:04:55;10.10;99.90
12504;DHT22;6316;48.118;-1.690;2023-02-01T09:07:21;10.20;99.90
12504;DHT22;6316;48.118;-1.690;2023-02-01T09:09:48;10.30;99.90
12504;DHT22;6316;48.118;-1.690;2023-02-01T09:12:13;10.30;99.90
12504;DHT22;6316;48.118;-1.690;2023-02-01T09:14:39;10.30;99.90
12504;DHT22;6316;48.118;-1.690;2023-02-01T09:17:05;10.30;99.90
12504;DHT22;6316;48.118;-1.690;2023-02-01T09:19:33;10.30;99.90
12504;DHT22;6316;48.118;-1.690;2023-02-01T09:21:58;10.30;99.90
12504;DHT22;6316;48.118;-1.690;2023-02-01T09:24:24;10.40;99.90
12504;DHT22;6316;48.118;-1.690;2023-02-01T09:26:50;10.40;99.90
12504;DHT22;6316;48.118;-1.690;2023-02-01T09:29:15;10.40;99.90
12504;DHT22;6316;48.118;-1.690;2023-02-01T09:31:41;10.40;99.90
12504;DHT22;6316;48.118;-1.690;2023-02-01T09:34:07;10.40;99.90
12504;DHT22;6316;48.118;-1.690;2023-02-01T09:36:33;10.40;99.90
12504;DHT22;6316;48.118;-1.690;2023-02-01T09:38:59;10.40;99.90
12504;DHT22;6316;48.118;-1.690;2023-02-01T09:46:39;10.50;99.90
12504;DHT22;6316;48.118;-1.690;2023-02-01T09:49:08;10.50;99.90
12504;DHT22;6316;48.118;-1.690;2023-02-01T09:51:36;10.50;99.90
12504;DHT22;6316;48.118;-1.690;2023-02-01T09:54:04;10.60;99.90
12504;DHT22;6316;48.118;-1.690;2023-02-01T09:56:41;10.60;99.90
12504;DHT22;6316;48.118;-1.690;2023-02-01T10:01:38;10.70;99.90
12504;DHT22;6316;48.118;-1.690;2023-02-01T10:04:13;10.70;99.90
12504;DHT22;6316;48.118;-1.690;2023-02-01T10:17:03;10.90;99.90
12504;DHT22;6316;48.118;-1.690;2023-02-01T10:22:52;11.10;99.90
12504;DHT22;6316;48.118;-1.690;2023-02-01T10:24:51;11.10;99.90
12504;DHT22;6316;48.118;-1.690;2023-02-01T10:27:23;11.20;99.90
12504;DHT22;6316;48.118;-1.690;2023-02-01T10:29:58;11.30;99.90
12504;DHT22;6316;48.118;-1.690;2023-02-01T10:32:27;11.30;99.90
12504;DHT22;6316;48.118;-1.690;2023-02-01T10:34:58;11.40;99.90
12504;DHT22;6316;48.118;-1.690;2023-02-01T10:37:26;11.40;99.90
12504;DHT22;6316;48.118;-1.690;2023-02-01T10:39:54;11.40;99.90
12504;DHT22;6316;48.118;-1.690;2023-02-01T10:42:20;11.50;99.90
12504;DHT22;6316;48.118;-1.690;2023-02-01T10:44:46;11.50;99.90
12504;DHT22;6316;48.118;-1.690;2023-02-01T10:47:13;11.50;99.90
12504;DHT22;6316;48.118;-1.690;2023-02-01T10:53:08;11.60;99.90
12504;DHT22;6316;48.118;-1.690;2023-02-01T10:57:57;11.70;99.90
12504;DHT22;6316;48.118;-1.690;2023-02-01T11:00:23;11.70;99.90
12504;DHT22;6316;48.118;-1.690;2023-02-01T11:02:48;11.70;99.90
12504;DHT22;6316;48.118;-1.690;2023-02-01T11:05:15;11.70;99.90
12504;DHT22;6316;48.118;-1.690;2023-02-01T11:07:46;11.60;99.90
12504;DHT22;6316;48.118;-1.690;2023-02-01T11:12:57;11.70;99.90
12504;DHT22;6316;48.118;-1.690;2023-02-01T11:15:23;11.70;99.90
12504;DHT22;6316;48.118;-1.690;2023-02-01T11:17:52;11.70;99.90
12504;DHT22;6316;48.118;-1.690;2023-02-01T11:22:57;11.70;99.90
12504;DHT22;6316;48.118;-1.690;2023-02-01T11:25:23;11.80;99.90
12504;DHT22;6316;48.118;-1.690;2023-02-01T11:27:53;11.80;99.90
12504;DHT22;6316;48.118;-1.690;2023-02-01T11:30:24;11.90;99.90
12504;DHT22;6316;48.118;-1.690;2023-02-01T11:32:51;11.90;99.90
12504;DHT22;6316;48.118;-1.690;2023-02-01T11:35:20;11.90;99.90
12504;DHT22;6316;48.118;-1.690;2023-02-01T11:37:55;11.90;99.90
12504;DHT22;6316;48.118;-1.690;2023-02-01T11:40:28;11.90;99.90
12504;DHT22;6316;48.118;-1.690;2023-02-01T11:47:51;12.00;99.90
12504;DHT22;6316;48.118;-1.690;2023-02-01T12:11:02;12.30;99.90
12504;DHT22;6316;48.118;-1.690;2023-02-01T12:13:47;12.30;99.90
12504;DHT22;6316;48.118;-1.690;2023-02-01T12:16:33;12.30;99.90
12504;DHT22;6316;48.118;-1.690;2023-02-01T12:29:56;12.50;99.90
12504;DHT22;6316;48.118;-1.690;2023-02-01T12:42:52;12.60;99.90
12504;DHT22;6316;48.118;-1.690;2023-02-01T12:45:24;12.60;99.90
12504;DHT22;6316;48.118;-1.690;2023-02-01T12:47:52;12.50;99.90
12504;DHT22;6316;48.118;-1.690;2023-02-01T12:50:28;12.50;99.90
12504;DHT22;6316;48.118;-1.690;2023-02-01T12:53:07;12.50;99.90
12504;DHT22;6316;48.118;-1.690;2023-02-01T12:55:35;12.50;99.90
12504;DHT22;6316;48.118;-1.690;2023-02-01T12:58:07;12.50;99.90
12504;DHT22;6316;48.118;-1.690;2023-02-01T13:00:37;12.50;99.90
12504;DHT22;6316;48.118;-1.690;2023-02-01T13:05:44;12.60;99.90
12504;DHT22;6316;48.118;-1.690;2023-02-01T13:08:13;12.60;99.90
12504;DHT22;6316;48.118;-1.690;2023-02-01T13:10:46;12.60;99.90
12504;DHT22;6316;48.118;-1.690;2023-02-01T13:13:19;12.60;99.90
12504;DHT22;6316;48.118;-1.690;2023-02-01T13:18:34;12.60;99.90
12504;DHT22;6316;48.118;-1.690;2023-02-01T13:21:08;12.70;99.90
12504;DHT22;6316;48.118;-1.690;2023-02-01T13:23:39;12.70;99.90
12504;DHT22;6316;48.118;-1.690;2023-02-01T13:26:07;12.70;99.90
12504;DHT22;6316;48.118;-1.690;2023-02-01T13:42:26;12.40;99.90
12504;DHT22;6316;48.118;-1.690;2023-02-01T13:44:55;12.40;99.90
12504;DHT22;6316;48.118;-1.690;2023-02-01T13:47:23;12.30;99.90
12504;DHT22;6316;48.118;-1.690;2023-02-01T13:49:49;12.30;99.90
12504;DHT22;6316;48.118;-1.690;2023-02-01T13:57:46;12.20;99.90
12504;DHT22;6316;48.118;-1.690;2023-02-01T14:00:28;12.20;99.90
12504;DHT22;6316;48.118;-1.690;2023-02-01T14:13:30;12.10;99.90
12504;DHT22;6316;48.118;-1.690;2023-02-01T14:23:43;11.90;99.90
12504;DHT22;6316;48.118;-1.690;2023-02-01T14:26:11;11.90;99.90
12504;DHT22;6316;48.118;-1.690;2023-02-01T14:28:39;11.80;99.90
12504;DHT22;6316;48.118;-1.690;2023-02-01T14:33:49;11.80;99.90
12504;DHT22;6316;48.118;-1.690;2023-02-01T14:36:20;11.80;99.90
12504;DHT22;6316;48.118;-1.690;2023-02-01T14:38:49;11.80;99.90
12504;DHT22;6316;48.118;-1.690;2023-02-01T14:44:30;11.80;99.90
12504;DHT22;6316;48.118;-1.690;2023-02-01T14:49:14;11.90;99.90
12504;DHT22;6316;48.118;-1.690;2023-02-01T14:51:40;12.00;99.90
12504;DHT22;6316;48.118;-1.690;2023-02-01T14:54:07;12.00;99.90
12504;DHT22;6316;48.118;-1.690;2023-02-01T14:56:33;12.10;99.90
12504;DHT22;6316;48.118;-1.690;2023-02-01T14:59:00;12.10;99.90
12504;DHT22;6316;48.118;-1.690;2023-02-01T15:01:31;12.10;99.90
12504;DHT22;6316;48.118;-1.690;2023-02-01T15:04:10;12.10;99.90
12504;DHT22;6316;48.118;-1.690;2023-02-01T15:06:40;12.10;99.90
12504;DHT22;6316;48.118;-1.690;2023-02-01T15:11:53;12.10;99.90
12504;DHT22;6316;48.118;-1.690;2023-02-01T15:14:19;12.10;99.90
12504;DHT22;6316;48.118;-1.690;2023-02-01T15:16:45;12.10;99.90
12504;DHT22;6316;48.118;-1.690;2023-02-01T15:19:24;12.10;99.90
12504;DHT22;6316;48.118;-1.690;2023-02-01T15:21:51;12.10;99.90
12504;DHT22;6316;48.118;-1.690;2023-02-01T15:24:24;12.10;99.90
12504;DHT22;6316;48.118;-1.690;2023-02-01T15:26:50;12.10;99.90
12504;DHT22;6316;48.118;-1.690;2023-02-01T15:29:17;12.00;99.90
12504;DHT22;6316;48.118;-1.690;2023-02-01T15:31:48;12.00;99.90
12504;DHT22;6316;48.118;-1.690;2023-02-01T15:34:14;12.00;99.90
12504;DHT22;6316;48.118;-1.690;2023-02-01T15:36:40;12.00;99.90
12504;DHT22;6316;48.118;-1.690;2023-02-01T15:39:17;12.00;99.90
12504;DHT22;6316;48.118;-1.690;2023-02-01T15:41:52;11.90;99.90
12504;DHT22;6316;48.118;-1.690;2023-02-01T15:46:56;11.90;99.90
12504;DHT22;6316;48.118;-1.690;2023-02-01T15:49:32;11.90;99.90
12504;DHT22;6316;48.118;-1.690;2023-02-01T15:52:02;11.90;99.90
12504;DHT22;6316;48.118;-1.690;2023-02-01T15:54:35;11.90;99.90
12504;DHT22;6316;48.118;-1.690;2023-02-01T15:57:03;11.90;99.90
12504;DHT22;6316;48.118;-1.690;2023-02-01T15:59:31;11.80;99.90
12504;DHT22;6316;48.118;-1.690;2023-02-01T16:01:58;11.80;99.90
12504;DHT22;6316;48.118;-1.690;2023-02-01T16:04:24;11.80;99.90
12504;DHT22;6316;48.118;-1.690;2023-02-01T16:06:51;11.80;99.90
12504;DHT22;6316;48.118;-1.690;2023-02-01T16:09:19;11.80;99.90
12504;DHT22;6316;48.118;-1.690;2023-02-01T16:11:58;11.70;99.90
12504;DHT22;6316;48.118;-1.690;2023-02-01T16:14:24;11.70;99.90
12504;DHT22;6316;48.118;-1.690;2023-02-01T16:16:50;11.70;99.90
12504;DHT22;6316;48.118;-1.690;2023-02-01T16:19:15;11.70;99.90
12504;DHT22;6316;48.118;-1.690;2023-02-01T16:21:41;11.70;99.90
12504;DHT22;6316;48.118;-1.690;2023-02-01T16:24:06;11.60;99.90
12504;DHT22;6316;48.118;-1.690;2023-02-01T16:26:33;11.60;99.90
12504;DHT22;6316;48.118;-1.690;2023-02-01T16:28:59;11.60;99.90
12504;DHT22;6316;48.118;-1.690;2023-02-01T16:31:30;11.60;99.90
12504;DHT22;6316;48.118;-1.690;2023-02-01T16:33:56;11.60;99.90
12504;DHT22;6316;48.118;-1.690;2023-02-01T16:36:22;11.60;99.90
12504;DHT22;6316;48.118;-1.690;2023-02-01T16:38:49;11.60;99.90
12504;DHT22;6316;48.118;-1.690;2023-02-01T16:41:15;11.60;99.90
12504;DHT22;6316;48.118;-1.690;2023-02-01T16:43:41;11.60;99.90
12504;DHT22;6316;48.118;-1.690;2023-02-01T16:46:11;11.50;99.90
12504;DHT22;6316;48.118;-1.690;2023-02-01T16:48:37;11.50;99.90
12504;DHT22;6316;48.118;-1.690;2023-02-01T16:51:09;11.50;99.90
12504;DHT22;6316;48.118;-1.690;2023-02-01T16:53:36;11.50;99.90
12504;DHT22;6316;48.118;-1.690;2023-02-01T16:56:01;11.50;99.90
12504;DHT22;6316;48.118;-1.690;2023-02-01T16:58:29;11.50;99.90
12504;DHT22;6316;48.118;-1.690;2023-02-01T17:00:55;11.40;99.90
12504;DHT22;6316;48.118;-1.690;2023-02-01T17:03:20;11.40;99.90
12504;DHT22;6316;48.118;-1.690;2023-02-01T17:05:47;11.40;99.90
12504;DHT22;6316;48.118;-1.690;2023-02-01T17:08:14;11.40;99.90
12504;DHT22;6316;48.118;-1.690;2023-02-01T17:10:39;11.40;99.90
12504;DHT22;6316;48.118;-1.690;2023-02-01T17:13:08;11.40;99.90
12504;DHT22;6316;48.118;-1.690;2023-02-01T17:15:33;11.40;99.90
12504;DHT22;6316;48.118;-1.690;2023-02-01T17:18:00;11.30;99.90
12504;DHT22;6316;48.118;-1.690;2023-02-01T17:20:28;11.30;99.90
12504;DHT22;6316;48.118;-1.690;2023-02-01T17:22:54;11.30;99.90
12504;DHT22;6316;48.118;-1.690;2023-02-01T17:25:20;11.30;99.90
12504;DHT22;6316;48.118;-1.690;2023-02-01T17:27:46;11.30;99.90
12504;DHT22;6316;48.118;-1.690;2023-02-01T17:30:12;11.30;99.90
12504;DHT22;6316;48.118;-1.690;2023-02-01T17:32:38;11.30;99.90
12504;DHT22;6316;48.118;-1.690;2023-02-01T17:35:04;11.30;99.90
12504;DHT22;6316;48.118;-1.690;2023-02-01T17:37:31;11.20;99.90
12504;DHT22;6316;48.118;-1.690;2023-02-01T17:39:57;11.20;99.90
12504;DHT22;6316;48.118;-1.690;2023-02-01T17:42:24;11.20;99.90
12504;DHT22;6316;48.118;-1.690;2023-02-01T17:44:51;11.20;99.90
12504;DHT22;6316;48.118;-1.690;2023-02-01T17:47:18;11.20;99.90
12504;DHT22;6316;48.118;-1.690;2023-02-01T17:49:44;11.20;99.90
12504;DHT22;6316;48.118;-1.690;2023-02-01T17:52:13;11.20;99.90
12504;DHT22;6316;48.118;-1.690;2023-02-01T17:54:40;11.20;99.90
12504;DHT22;6316;48.118;-1.690;2023-02-01T17:57:13;11.20;99.90
12504;DHT22;6316;48.118;-1.690;2023-02-01T17:59:39;11.10;99.90
12504;DHT22;6316;48.118;-1.690;2023-02-01T18:02:23;11.10;99.90
12504;DHT22;6316;48.118;-1.690;2023-02-01T18:04:50;11.10;99.90
12504;DHT22;6316;48.118;-1.690;2023-02-01T18:07:16;11.10;99.90
12504;DHT22;6316;48.118;-1.690;2023-02-01T18:09:42;11.10;99.90
12504;DHT22;6316;48.118;-1.690;2023-02-01T18:12:17;11.10;99.90
12504;DHT22;6316;48.118;-1.690;2023-02-01T18:14:44;11.10;99.90
12504;DHT22;6316;48.118;-1.690;2023-02-01T18:17:09;11.00;99.90
12504;DHT22;6316;48.118;-1.690;2023-02-01T18:19:37;11.00;99.90
12504;DHT22;6316;48.118;-1.690;2023-02-01T18:22:02;11.00;99.90
12504;DHT22;6316;48.118;-1.690;2023-02-01T18:24:30;11.00;99.90
12504;DHT22;6316;48.118;-1.690;2023-02-01T18:26:58;10.90;99.90
12504;DHT22;6316;48.118;-1.690;2023-02-01T18:29:24;10.90;99.90
12504;DHT22;6316;48.118;-1.690;2023-02-01T18:31:50;10.90;99.90
12504;DHT22;6316;48.118;-1.690;2023-02-01T18:34:16;10.90;99.90